Terminal Aerodrome Forecast
Issued by NWS Wakefield, VA

Home | Current Version | Previous Version | Text Only | Print | Product List | Glossary On
Versions: 1 2 3 4 5 6 7 8 9 10 11 12 13 14 15 16 17
000
FTUS41 KAKQ 202300
TAFSBY
TAF
KSBY 202337Z 2100/2124 19003KT P6SM SCT150 BKN250
     FM210800 20003KT P6SM BKN100 OVC200
     FM211300 23005KT P6SM SCT060 BKN120
     FM211800 25007KT P6SM BKN060=

USA.gov is the U.S. government's official web portal to all federal, state and local government web resources and services.